createdAt,value
2022-12-26T00:00:13.333Z,11.50
2022-12-26T00:02:42.500Z,11.50
2022-12-26T00:05:09.249Z,11.50
2022-12-26T00:07:35.863Z,11.60
2022-12-26T00:10:02.502Z,11.60
2022-12-26T00:12:31.827Z,11.50
2022-12-26T00:15:00.852Z,11.50
2022-12-26T00:17:32.316Z,11.50
2022-12-26T00:20:01.108Z,11.50
2022-12-26T00:22:29.805Z,11.60
2022-12-26T00:24:56.361Z,11.60
2022-12-26T00:27:22.935Z,11.60
2022-12-26T00:29:52.004Z,11.50
2022-12-26T00:32:18.550Z,11.50
2022-12-26T00:34:45.160Z,11.50
2022-12-26T00:37:11.919Z,11.50
2022-12-26T00:39:38.512Z,11.40
2022-12-26T00:42:05.121Z,11.40
2022-12-26T00:44:31.963Z,11.40
2022-12-26T00:46:58.720Z,11.50
2022-12-26T00:49:25.367Z,11.50
2022-12-26T00:51:54.305Z,11.50
2022-12-26T00:54:20.873Z,11.50
2022-12-26T00:56:47.837Z,11.50
2022-12-26T00:59:14.424Z,11.50
2022-12-26T01:01:41.333Z,11.50
2022-12-26T01:04:08.386Z,11.40
2022-12-26T01:06:34.954Z,11.40
2022-12-26T01:09:03.828Z,11.40
2022-12-26T01:11:42.829Z,11.50
2022-12-26T01:14:14.269Z,11.40
2022-12-26T01:16:41.385Z,11.30
2022-12-26T01:19:08.439Z,11.30
2022-12-26T01:21:37.575Z,11.30
2022-12-26T01:24:04.318Z,11.30
2022-12-26T01:26:30.959Z,11.10
2022-12-26T01:28:57.522Z,11.20
2022-12-26T01:31:24.153Z,11.20
2022-12-26T01:33:50.753Z,11.10
2022-12-26T01:36:19.908Z,10.90
2022-12-26T01:38:46.504Z,11.00
2022-12-26T01:41:22.358Z,10.90
2022-12-26T01:43:49.079Z,11.00
2022-12-26T01:46:16.651Z,11.00
2022-12-26T01:48:43.262Z,11.00
2022-12-26T01:51:10.935Z,11.00
2022-12-26T01:53:39.572Z,11.10
2022-12-26T01:56:06.235Z,11.10
2022-12-26T01:58:34.518Z,11.00
2022-12-26T02:01:02.612Z,11.00
2022-12-26T02:03:48.077Z,11.20
2022-12-26T02:06:14.946Z,11.20
2022-12-26T02:08:41.862Z,11.30
2022-12-26T02:11:17.974Z,11.20
2022-12-26T02:13:44.635Z,11.30
2022-12-26T02:16:13.030Z,11.40
2022-12-26T02:18:39.971Z,11.30
2022-12-26T02:21:15.191Z,11.30
2022-12-26T02:23:41.722Z,11.20
2022-12-26T02:26:27.144Z,11.30
2022-12-26T02:28:56.851Z,11.30
2022-12-26T02:31:29.127Z,11.40
2022-12-26T02:34:14.224Z,11.40
2022-12-26T02:36:43.222Z,11.40
2022-12-26T02:39:44.688Z,11.30
2022-12-26T02:42:15.843Z,11.40
2022-12-26T02:45:13.322Z,11.30
2022-12-26T02:47:58.899Z,11.40
2022-12-26T02:50:47.830Z,11.40
2022-12-26T02:53:39.174Z,11.40
2022-12-26T02:56:26.957Z,11.50
2022-12-26T02:59:18.358Z,11.50
2022-12-26T03:02:06.129Z,11.60
2022-12-26T03:04:53.689Z,11.60
2022-12-26T03:07:45.765Z,11.60
2022-12-26T03:10:46.881Z,11.70
2022-12-26T03:13:22.975Z,11.70
2022-12-26T03:16:13.470Z,11.80
2022-12-26T03:18:58.417Z,11.80
2022-12-26T03:21:27.384Z,11.80
2022-12-26T03:23:55.801Z,11.80
2022-12-26T03:26:40.339Z,11.70
2022-12-26T03:29:30.308Z,11.80
2022-12-26T03:31:59.676Z,11.80
2022-12-26T03:34:26.261Z,11.80
2022-12-26T03:37:15.247Z,11.80
2022-12-26T03:40:03.856Z,11.80
2022-12-26T03:42:59.524Z,11.80
2022-12-26T03:45:51.841Z,11.80
2022-12-26T03:48:40.397Z,11.70
2022-12-26T03:51:28.739Z,11.80
2022-12-26T03:54:34.201Z,11.70
2022-12-26T03:57:22.716Z,11.60
2022-12-26T04:00:14.236Z,11.70
2022-12-26T04:03:04.943Z,11.70
2022-12-26T04:05:53.818Z,11.70
2022-12-26T04:08:44.808Z,11.70
2022-12-26T04:11:34.142Z,11.70
2022-12-26T04:14:28.557Z,11.60
2022-12-26T04:17:22.311Z,11.80
2022-12-26T04:20:00.214Z,11.60
2022-12-26T04:22:55.509Z,11.70
2022-12-26T04:25:48.951Z,11.70
2022-12-26T04:28:36.571Z,11.80
2022-12-26T04:31:32.890Z,11.70
2022-12-26T04:34:23.373Z,11.70
2022-12-26T04:37:11.702Z,11.70
2022-12-26T04:39:58.489Z,11.60
2022-12-26T04:42:45.017Z,11.70
2022-12-26T04:45:12.519Z,11.70
2022-12-26T04:47:59.354Z,11.80
2022-12-26T04:50:25.916Z,11.80
2022-12-26T04:52:58.614Z,11.80
2022-12-26T04:55:26.593Z,11.90
2022-12-26T04:57:55.332Z,11.90
2022-12-26T05:00:24.832Z,12.00
2022-12-26T05:03:18.254Z,11.90
2022-12-26T05:06:06.102Z,12.00
2022-12-26T05:08:59.434Z,12.00
2022-12-26T05:11:29.113Z,12.00
2022-12-26T05:13:56.517Z,12.00
2022-12-26T05:16:46.831Z,12.10
2022-12-26T05:19:38.159Z,12.10
2022-12-26T05:22:24.099Z,12.00
2022-12-26T05:25:09.948Z,12.00
2022-12-26T05:28:02.360Z,12.00
2022-12-26T05:30:29.291Z,12.00
2022-12-26T05:33:14.693Z,12.00
2022-12-26T05:35:41.374Z,12.10
2022-12-26T05:38:09.549Z,12.10
2022-12-26T05:40:38.413Z,12.10
2022-12-26T05:43:04.920Z,12.00
2022-12-26T05:45:31.574Z,12.10
2022-12-26T05:48:00.150Z,12.10
2022-12-26T05:50:26.988Z,12.20
2022-12-26T05:52:53.562Z,12.10
2022-12-26T05:55:20.211Z,12.20
2022-12-26T05:57:48.972Z,12.20
2022-12-26T06:00:15.868Z,12.20
2022-12-26T06:02:42.568Z,12.20
2022-12-26T06:05:14.197Z,12.20
2022-12-26T06:07:41.112Z,12.20
2022-12-26T06:10:07.857Z,12.20
2022-12-26T06:12:34.767Z,12.30
2022-12-26T06:15:03.771Z,12.20
2022-12-26T06:17:30.426Z,12.40
2022-12-26T06:19:56.966Z,12.20
2022-12-26T06:22:28.137Z,12.30
2022-12-26T06:24:59.494Z,12.20
2022-12-26T06:27:26.059Z,12.20
2022-12-26T06:29:52.778Z,12.30
2022-12-26T06:32:19.341Z,12.30
2022-12-26T06:34:49.439Z,12.20
2022-12-26T06:37:16.014Z,12.30
2022-12-26T06:39:44.959Z,12.30
2022-12-26T06:42:11.846Z,12.30
2022-12-26T06:44:38.402Z,12.30
2022-12-26T06:47:07.704Z,12.30
2022-12-26T06:49:34.285Z,12.30
2022-12-26T06:52:03.297Z,12.30
2022-12-26T06:54:29.908Z,12.30
2022-12-26T06:56:56.501Z,12.20
2022-12-26T06:59:25.329Z,12.20
2022-12-26T07:01:52.028Z,12.20
2022-12-26T07:04:18.811Z,12.20
2022-12-26T07:06:45.448Z,12.20
2022-12-26T07:09:14.384Z,12.20
2022-12-26T07:11:42.368Z,12.10
2022-12-26T07:14:08.966Z,12.20
2022-12-26T07:16:36.264Z,12.10
2022-12-26T07:19:08.045Z,12.10
2022-12-26T07:21:40.101Z,12.10
2022-12-26T07:24:12.592Z,12.10
2022-12-26T07:26:41.549Z,12.00
2022-12-26T07:29:10.206Z,12.00
2022-12-26T07:31:39.046Z,12.00
2022-12-26T07:34:05.842Z,12.10
2022-12-26T07:36:32.413Z,12.00
2022-12-26T07:38:59.210Z,12.10
2022-12-26T07:41:44.488Z,12.10
2022-12-26T07:44:11.253Z,12.10
2022-12-26T07:46:38.231Z,12.00
2022-12-26T07:49:07.507Z,12.10
2022-12-26T07:51:34.211Z,12.00
2022-12-26T07:54:04.277Z,11.90
2022-12-26T07:56:35.600Z,12.00
2022-12-26T07:59:02.427Z,11.90
2022-12-26T08:01:29.067Z,11.90
2022-12-26T08:03:55.877Z,11.90
2022-12-26T08:06:22.910Z,11.90
2022-12-26T08:08:51.331Z,11.90
2022-12-26T08:11:20.336Z,11.80
2022-12-26T08:13:49.479Z,11.80
2022-12-26T08:16:16.519Z,11.80
2022-12-26T08:18:43.294Z,11.70
2022-12-26T08:21:10.552Z,11.70
2022-12-26T08:23:37.289Z,11.80
2022-12-26T08:26:09.844Z,11.70
2022-12-26T08:28:38.937Z,11.60
2022-12-26T08:31:06.691Z,11.80
2022-12-26T08:33:33.460Z,11.70
2022-12-26T08:36:04.288Z,11.60
2022-12-26T08:38:31.926Z,11.70
2022-12-26T08:41:01.058Z,11.70
2022-12-26T08:46:17.228Z,11.80
2022-12-26T08:48:48.725Z,11.70
2022-12-26T08:51:20.988Z,11.70
2022-12-26T08:53:49.733Z,11.70
2022-12-26T08:56:22.589Z,11.80
2022-12-26T08:58:49.234Z,11.70
2022-12-26T09:01:17.297Z,11.80
2022-12-26T09:03:46.418Z,11.60
2022-12-26T09:06:17.664Z,11.70
2022-12-26T09:08:44.308Z,11.70
2022-12-26T09:11:15.212Z,11.60
2022-12-26T09:13:42.515Z,11.60
2022-12-26T09:16:11.864Z,11.60
2022-12-26T09:18:38.779Z,11.60
2022-12-26T09:21:06.614Z,11.60
2022-12-26T09:23:33.296Z,11.60
2022-12-26T09:26:09.467Z,11.60
2022-12-26T09:28:36.417Z,11.60
2022-12-26T09:31:04.708Z,11.60
2022-12-26T09:33:33.376Z,11.60
2022-12-26T09:36:04.508Z,11.60
2022-12-26T09:38:32.960Z,11.60
2022-12-26T09:41:15.940Z,11.60
2022-12-26T09:43:54.851Z,11.70
2022-12-26T09:46:44.481Z,11.70
2022-12-26T09:49:20.557Z,11.70
2022-12-26T09:51:55.112Z,11.70
2022-12-26T09:54:27.521Z,11.70
2022-12-26T09:57:02.608Z,11.90
2022-12-26T09:59:32.182Z,11.80
2022-12-26T10:01:58.819Z,11.80
2022-12-26T10:04:30.389Z,11.80
2022-12-26T10:07:10.522Z,11.90
2022-12-26T10:09:37.215Z,11.80
2022-12-26T10:12:03.786Z,11.80
2022-12-26T10:14:54.620Z,11.90
2022-12-26T10:17:27.621Z,12.00
2022-12-26T10:20:16.906Z,12.10
2022-12-26T10:23:09.574Z,12.10
2022-12-26T10:25:39.308Z,12.10
2022-12-26T10:28:11.238Z,12.20
2022-12-26T10:30:41.782Z,12.10
2022-12-26T10:33:20.134Z,12.10
2022-12-26T10:35:46.978Z,12.20
2022-12-26T10:38:32.446Z,12.20
2022-12-26T10:41:03.106Z,12.30
2022-12-26T10:43:48.523Z,12.20
2022-12-26T10:46:34.188Z,12.30
2022-12-26T10:49:03.607Z,12.30
2022-12-26T10:51:30.519Z,12.30
2022-12-26T10:53:59.581Z,12.20
2022-12-26T10:56:26.863Z,12.40
2022-12-26T10:59:00.957Z,12.30
2022-12-26T11:02:06.931Z,12.30
2022-12-26T11:07:25.201Z,12.40
2022-12-26T11:09:55.892Z,12.40
2022-12-26T11:12:40.374Z,12.30
2022-12-26T11:15:18.692Z,12.40
2022-12-26T11:17:47.061Z,12.40
2022-12-26T11:20:16.709Z,12.40
2022-12-26T11:22:43.974Z,12.30
2022-12-26T11:25:18.101Z,12.40
2022-12-26T11:27:56.882Z,12.40
2022-12-26T11:30:35.067Z,12.40
2022-12-26T11:33:14.849Z,12.50
2022-12-26T11:35:46.916Z,12.40
2022-12-26T11:38:39.175Z,12.40
2022-12-26T11:41:32.712Z,12.50
2022-12-26T11:44:05.492Z,12.40
2022-12-26T11:46:40.010Z,12.40
2022-12-26T11:49:07.259Z,12.50
2022-12-26T11:51:42.021Z,12.40
2022-12-26T11:54:13.146Z,12.50
2022-12-26T11:56:39.786Z,12.40
2022-12-26T11:59:13.385Z,12.40
2022-12-26T12:01:40.069Z,12.50
2022-12-26T12:04:08.906Z,12.50
2022-12-26T12:06:50.533Z,12.40
2022-12-26T12:09:29.568Z,12.50
2022-12-26T12:12:14.728Z,12.40
2022-12-26T12:15:00.248Z,12.40
2022-12-26T12:17:46.051Z,12.40
2022-12-26T12:20:18.466Z,12.50
2022-12-26T12:22:50.456Z,12.40
2022-12-26T12:25:41.066Z,12.50
2022-12-26T12:28:08.239Z,12.40
2022-12-26T12:30:36.929Z,12.40
2022-12-26T12:33:03.580Z,12.50
2022-12-26T12:35:42.069Z,12.50
2022-12-26T12:38:27.438Z,12.50
2022-12-26T12:40:57.150Z,12.50
2022-12-26T12:43:42.275Z,12.60
2022-12-26T12:46:12.057Z,12.50
2022-12-26T12:48:46.977Z,12.40
2022-12-26T12:51:13.608Z,12.40
2022-12-26T12:53:53.585Z,12.30
2022-12-26T12:56:22.982Z,12.40
2022-12-26T12:58:49.939Z,12.20
2022-12-26T13:01:40.156Z,12.30
2022-12-26T13:04:23.352Z,12.20
2022-12-26T13:07:04.426Z,12.20
2022-12-26T13:09:46.684Z,12.20
2022-12-26T13:12:21.423Z,12.30
2022-12-26T13:14:51.369Z,12.20
2022-12-26T13:17:20.476Z,12.20
2022-12-26T13:19:52.057Z,12.20
2022-12-26T13:22:58.224Z,12.30
2022-12-26T13:25:26.866Z,12.20
2022-12-26T13:27:55.890Z,12.20
2022-12-26T13:30:22.745Z,12.20
2022-12-26T13:32:55.335Z,12.30
2022-12-26T13:35:43.026Z,12.20
2022-12-26T13:38:09.539Z,12.30
2022-12-26T13:40:38.279Z,12.20
2022-12-26T13:43:34.364Z,12.20
2022-12-26T13:46:01.741Z,12.20
2022-12-26T13:48:30.357Z,12.10
2022-12-26T13:50:56.907Z,12.10
2022-12-26T13:53:26.368Z,12.10
2022-12-26T13:55:56.950Z,12.10
2022-12-26T13:58:26.458Z,12.00
2022-12-26T14:00:56.129Z,12.10
2022-12-26T14:03:34.848Z,12.10
2022-12-26T14:06:16.678Z,11.60
2022-12-26T14:08:55.330Z,11.30
2022-12-26T14:11:25.112Z,11.30
2022-12-26T14:13:54.770Z,11.10
2022-12-26T14:16:30.443Z,10.70
2022-12-26T14:19:20.592Z,10.50
2022-12-26T14:21:50.407Z,10.40
2022-12-26T14:24:26.244Z,10.40
2022-12-26T14:27:00.630Z,10.50
2022-12-26T14:29:47.442Z,10.40
2022-12-26T14:32:23.683Z,10.30
2022-12-26T14:34:50.189Z,10.60
2022-12-26T14:37:34.879Z,10.60
2022-12-26T14:40:07.266Z,10.70
2022-12-26T14:43:12.487Z,10.50
2022-12-26T14:45:52.535Z,10.60
2022-12-26T14:48:21.568Z,10.50
2022-12-26T14:50:51.078Z,10.40
2022-12-26T14:53:29.727Z,10.60
2022-12-26T14:55:56.373Z,10.70
2022-12-26T14:58:32.001Z,10.50
2022-12-26T15:01:13.775Z,10.40
2022-12-26T15:03:45.923Z,10.50
2022-12-26T15:06:22.942Z,10.40
2022-12-26T15:09:22.018Z,10.50
2022-12-26T15:12:00.569Z,10.30
2022-12-26T15:14:29.861Z,10.40
2022-12-26T15:16:56.405Z,10.30
2022-12-26T15:19:25.747Z,10.30
2022-12-26T15:22:01.395Z,10.20
2022-12-26T15:27:37.958Z,10.20
2022-12-26T15:30:17.131Z,10.20
2022-12-26T15:33:01.593Z,10.20
2022-12-26T15:35:28.254Z,10.20
2022-12-26T15:38:13.792Z,10.30
2022-12-26T15:40:44.957Z,10.30
2022-12-26T15:43:14.365Z,10.20
2022-12-26T15:45:48.565Z,10.20
2022-12-26T15:48:23.928Z,10.10
2022-12-26T15:51:05.504Z,10.10
2022-12-26T15:54:07.702Z,10.20
2022-12-26T15:56:34.469Z,10.10
2022-12-26T15:59:19.936Z,10.20
2022-12-26T16:01:48.742Z,10.20
2022-12-26T16:04:36.831Z,10.00
2022-12-26T16:07:06.120Z,10.00
2022-12-26T16:09:51.750Z,10.00
2022-12-26T16:12:27.606Z,9.80
2022-12-26T16:15:03.527Z,9.80
2022-12-26T16:17:30.236Z,9.60
2022-12-26T16:19:57.118Z,9.60
2022-12-26T16:22:46.664Z,9.50
2022-12-26T16:25:18.411Z,9.30
2022-12-26T16:27:48.359Z,9.20
2022-12-26T16:30:18.080Z,9.20
2022-12-26T16:32:44.966Z,9.20
2022-12-26T16:35:28.208Z,9.10
2022-12-26T16:37:56.960Z,9.00
2022-12-26T16:40:34.029Z,8.90
2022-12-26T16:43:21.922Z,9.10
2022-12-26T16:45:52.731Z,9.20
2022-12-26T16:48:20.511Z,9.10
2022-12-26T16:50:51.302Z,9.10
2022-12-26T16:53:24.224Z,9.10
2022-12-26T16:56:00.863Z,9.10
2022-12-26T16:58:29.425Z,9.20
2022-12-26T17:01:16.657Z,9.10
2022-12-26T17:03:49.392Z,9.10
2022-12-26T17:06:19.049Z,9.00
2022-12-26T17:08:48.539Z,8.90
2022-12-26T17:11:15.354Z,9.00
2022-12-26T17:13:47.857Z,9.00
2022-12-26T17:16:16.711Z,9.00
2022-12-26T17:18:48.872Z,8.90
2022-12-26T17:21:29.882Z,8.90
2022-12-26T17:24:08.457Z,8.90
2022-12-26T17:26:38.831Z,8.90
2022-12-26T17:29:05.435Z,8.80
2022-12-26T17:31:34.862Z,8.80
2022-12-26T17:34:04.703Z,8.90
2022-12-26T17:39:25.498Z,8.90
2022-12-26T17:41:53.782Z,8.90
2022-12-26T17:44:39.376Z,8.90
2022-12-26T17:47:17.544Z,8.90
2022-12-26T17:49:44.124Z,8.90
2022-12-26T17:52:11.900Z,8.80
2022-12-26T17:54:38.562Z,8.80
2022-12-26T17:57:09.006Z,8.80
2022-12-26T17:59:35.572Z,8.80
2022-12-26T18:02:02.218Z,8.90
2022-12-26T18:04:33.597Z,8.80
2022-12-26T18:07:00.163Z,8.90
2022-12-26T18:09:27.551Z,8.80
2022-12-26T18:11:54.634Z,9.00
2022-12-26T18:14:21.271Z,8.90
2022-12-26T18:16:51.119Z,9.00
2022-12-26T18:19:21.056Z,8.90
2022-12-26T18:21:47.696Z,8.90
2022-12-26T18:24:14.356Z,8.80
2022-12-26T18:26:43.396Z,9.00
2022-12-26T18:29:10.435Z,8.90
2022-12-26T18:31:39.822Z,8.90
2022-12-26T18:34:08.988Z,8.90
2022-12-26T18:36:42.129Z,9.00
2022-12-26T18:39:10.496Z,8.80
2022-12-26T18:41:37.132Z,8.90
2022-12-26T18:44:04.577Z,8.90
2022-12-26T18:46:31.159Z,8.90
2022-12-26T18:48:57.821Z,8.90
2022-12-26T18:51:25.243Z,8.80
2022-12-26T18:53:52.077Z,8.80
2022-12-26T18:56:19.817Z,8.80
2022-12-26T18:58:49.159Z,8.70
2022-12-26T19:01:19.599Z,8.80
2022-12-26T19:03:47.995Z,8.80
2022-12-26T19:06:19.710Z,8.70
2022-12-26T19:08:46.269Z,8.70
2022-12-26T19:11:13.857Z,8.70
2022-12-26T19:13:40.662Z,8.60
2022-12-26T19:16:07.533Z,8.60
2022-12-26T19:18:34.600Z,8.60
2022-12-26T19:21:01.519Z,8.50
2022-12-26T19:23:28.091Z,8.60
2022-12-26T19:25:54.608Z,8.40
2022-12-26T19:28:22.356Z,8.40
2022-12-26T19:30:48.980Z,8.30
2022-12-26T19:33:18.753Z,8.30
2022-12-26T19:35:45.349Z,8.20
2022-12-26T19:38:14.442Z,8.00
2022-12-26T19:40:40.977Z,7.90
2022-12-26T19:43:07.518Z,7.90
2022-12-26T19:45:34.137Z,7.90
2022-12-26T19:48:00.751Z,8.10
2022-12-26T19:50:27.582Z,7.90
2022-12-26T19:52:54.279Z,8.00
2022-12-26T19:55:20.879Z,8.00
2022-12-26T19:57:47.457Z,7.80
2022-12-26T20:00:14.182Z,7.80
2022-12-26T20:02:41.044Z,7.80
2022-12-26T20:05:07.998Z,7.60
2022-12-26T20:07:34.587Z,7.60
2022-12-26T20:10:03.543Z,7.60
2022-12-26T20:12:30.183Z,7.60
2022-12-26T20:14:56.768Z,7.60
2022-12-26T20:17:23.396Z,7.50
2022-12-26T20:19:52.218Z,7.60
2022-12-26T20:22:20.990Z,7.60
2022-12-26T20:24:47.621Z,7.60
2022-12-26T20:27:14.957Z,7.50
2022-12-26T20:29:41.532Z,7.30
2022-12-26T20:32:10.405Z,7.40
2022-12-26T20:34:37.066Z,7.40
2022-12-26T20:37:03.894Z,7.40
2022-12-26T20:39:31.980Z,7.30
2022-12-26T20:42:01.602Z,7.20
2022-12-26T20:44:28.533Z,6.90
2022-12-26T20:46:55.155Z,7.00
2022-12-26T20:49:21.731Z,7.00
2022-12-26T20:51:50.997Z,6.90
2022-12-26T20:54:20.342Z,6.80
2022-12-26T20:56:46.941Z,6.70
2022-12-26T20:59:13.573Z,6.80
2022-12-26T21:01:40.476Z,6.70
2022-12-26T21:04:07.685Z,6.60
2022-12-26T21:06:36.207Z,6.70
2022-12-26T21:09:06.259Z,6.50
2022-12-26T21:11:38.038Z,6.60
2022-12-26T21:14:06.044Z,6.50
2022-12-26T21:16:37.118Z,6.40
2022-12-26T21:19:09.218Z,6.40
2022-12-26T21:21:43.516Z,6.30
2022-12-26T21:24:23.177Z,6.30
2022-12-26T21:26:49.779Z,6.30
2022-12-26T21:29:18.310Z,6.10
2022-12-26T21:31:45.348Z,6.00
2022-12-26T21:34:15.890Z,6.20
2022-12-26T21:37:02.898Z,6.20
2022-12-26T21:39:29.705Z,6.10
2022-12-26T21:41:56.225Z,6.20
2022-12-26T21:44:22.817Z,6.00
2022-12-26T21:46:49.454Z,5.80
2022-12-26T21:49:16.059Z,6.00
2022-12-26T21:51:44.743Z,6.10
2022-12-26T21:54:32.542Z,6.10
2022-12-26T21:56:59.113Z,6.00
2022-12-26T21:59:44.586Z,5.90
2022-12-26T22:02:33.313Z,6.00
2022-12-26T22:05:00.807Z,5.70
2022-12-26T22:07:27.900Z,5.60
2022-12-26T22:09:54.440Z,5.50
2022-12-26T22:12:39.674Z,5.50
2022-12-26T22:15:26.750Z,5.50
2022-12-26T22:17:53.465Z,5.40
2022-12-26T22:20:20.090Z,5.30
2022-12-26T22:22:46.632Z,5.40
2022-12-26T22:25:13.230Z,5.30
2022-12-26T22:27:41.980Z,5.40
2022-12-26T22:30:09.011Z,5.30
2022-12-26T22:32:35.587Z,5.30
2022-12-26T22:35:02.393Z,5.40
2022-12-26T22:37:28.952Z,5.10
2022-12-26T22:39:55.610Z,5.10
2022-12-26T22:42:22.193Z,5.00
2022-12-26T22:44:48.928Z,5.20
2022-12-26T22:47:17.652Z,5.10
2022-12-26T22:49:46.615Z,5.00
2022-12-26T22:52:15.960Z,5.20
2022-12-26T22:54:43.678Z,5.30
2022-12-26T22:57:10.269Z,5.00
2022-12-26T23:00:06.992Z,5.10
2022-12-26T23:02:26.833Z,5.00
2022-12-26T23:04:53.682Z,5.00
2022-12-26T23:07:21.018Z,5.00
2022-12-26T23:09:47.957Z,4.90
2022-12-26T23:12:33.473Z,4.90
2022-12-26T23:15:00.154Z,4.90
2022-12-26T23:17:45.997Z,4.90
2022-12-26T23:20:31.958Z,5.00
2022-12-26T23:22:59.058Z,4.90
2022-12-26T23:25:25.937Z,5.00
2022-12-26T23:28:11.198Z,4.90
2022-12-26T23:30:37.817Z,4.70
2022-12-26T23:33:04.467Z,4.90
2022-12-26T23:35:31.170Z,4.70
2022-12-26T23:37:57.775Z,5.00
2022-12-26T23:40:26.777Z,4.90
2022-12-26T23:42:53.346Z,4.70
2022-12-26T23:45:19.977Z,4.70
2022-12-26T23:47:48.929Z,4.80
2022-12-26T23:50:16.617Z,4.50
2022-12-26T23:52:43.734Z,4.70
2022-12-26T23:55:10.661Z,4.80
2022-12-26T23:57:37.261Z,4.50
